Time;durP1;ratioP1;P1;durP2;ratioP2;P2;SDS_P1;SDS_P2;PMS_P1;PMS_P2;Temp;Humidity;BMP_temperature;BMP_pressure;BME280_temperature;BME280_humidity;BME280_pressure;Samples;Min_cycle;Max_cycle;Signal;HPM_P1;HPM_P2
2022/01/17 00:00:31;;;;;;;3.97;2.10;;;5.00;99.90;;;;;;5020273;28;20528;-59
2022/01/17 00:03:00;;;;;;;5.13;1.92;;;4.90;99.90;;;;;;5021531;28;20400;-58
2022/01/17 00:05:28;;;;;;;4.97;2.13;;;4.90;99.90;;;;;;5021139;28;20060;-58
2022/01/17 00:07:55;;;;;;;4.93;2.17;;;4.90;99.90;;;;;;5020159;28;20064;-59
2022/01/17 00:10:21;;;;;;;6.75;2.83;;;4.80;99.90;;;;;;5021317;28;20128;-58
2022/01/17 00:12:51;;;;;;;5.35;2.58;;;4.80;99.90;;;;;;5021663;28;20136;-59
2022/01/17 00:15:47;;;;;;;6.85;2.40;;;4.80;99.90;;;;;;5020637;28;20077;-59
2022/01/17 00:20:44;;;;;;;6.00;2.50;;;4.70;99.90;;;;;;5021883;28;20045;-59
2022/01/17 00:23:14;;;;;;;5.55;2.28;;;4.70;99.90;;;;;;5025640;28;20100;-59
2022/01/17 00:25:41;;;;;;;6.88;2.40;;;4.70;99.90;;;;;;5025317;28;20128;-59
2022/01/17 00:28:08;;;;;;;5.50;2.00;;;4.60;99.90;;;;;;5025709;28;20148;-58
2022/01/17 00:30:34;;;;;;;4.15;2.10;;;4.60;99.90;;;;;;5025232;28;20266;-59
2022/01/17 00:33:01;;;;;;;4.78;1.95;;;4.60;99.90;;;;;;5025100;28;20513;-58
2022/01/17 00:35:28;;;;;;;3.88;1.80;;;4.50;99.90;;;;;;5024433;28;20132;-58
2022/01/17 00:37:55;;;;;;;6.57;2.42;;;4.50;99.90;;;;;;5025539;28;20113;-58
2022/01/17 00:40:22;;;;;;;5.82;2.58;;;4.50;99.90;;;;;;5025593;28;20084;-59
2022/01/17 00:42:49;;;;;;;14.50;3.58;;;4.50;99.90;;;;;;5025942;28;20045;-59
2022/01/17 00:45:19;;;;;;;7.53;2.30;;;4.50;99.90;;;;;;5025185;28;20588;-59
2022/01/17 00:47:50;;;;;;;7.15;2.72;;;4.50;99.90;;;;;;5024344;28;20081;-57
2022/01/17 00:50:17;;;;;;;6.45;2.90;;;4.50;99.90;;;;;;5024576;28;20567;-59
2022/01/17 00:52:43;;;;;;;5.57;2.60;;;4.40;99.90;;;;;;5024114;28;20124;-59
2022/01/17 00:55:10;;;;;;;9.43;2.63;;;4.40;99.90;;;;;;5024040;28;20052;-59
2022/01/17 00:57:37;;;;;;;5.85;2.25;;;4.40;99.90;;;;;;5026304;28;20467;-60
2022/01/17 01:00:05;;;;;;;6.88;2.47;;;4.40;99.90;;;;;;5025340;28;20046;-60
2022/01/17 01:02:32;;;;;;;8.25;3.25;;;4.40;99.90;;;;;;5025333;28;20561;-59
2022/01/17 01:04:58;;;;;;;5.13;2.70;;;4.40;99.90;;;;;;5024439;28;20046;-59
2022/01/17 01:07:25;;;;;;;6.72;2.65;;;4.40;99.90;;;;;;5024940;28;20046;-59
2022/01/17 01:10:04;;;;;;;5.65;2.22;;;4.30;99.90;;;;;;5024971;28;20083;-59
2022/01/17 01:12:31;;;;;;;5.20;2.00;;;4.30;99.90;;;;;;5025035;28;20433;-59
2022/01/17 01:14:58;;;;;;;6.25;2.30;;;4.30;99.90;;;;;;5022627;28;20120;-60
2022/01/17 01:17:34;;;;;;;8.55;2.58;;;4.30;99.90;;;;;;5024843;28;20152;-59
2022/01/17 01:28:11;;;;;;;5.55;2.80;;;4.10;99.90;;;;;;5022504;28;20132;-59
2022/01/17 01:30:42;;;;;;;4.40;2.13;;;4.10;99.90;;;;;;5023723;28;20091;-58
2022/01/17 01:33:09;;;;;;;5.32;2.08;;;4.10;99.90;;;;;;5022052;28;20179;-59
2022/01/17 01:35:44;;;;;;;6.63;2.50;;;4.10;99.90;;;;;;5024267;28;20495;-59
2022/01/17 01:38:10;;;;;;;6.00;2.28;;;4.00;99.90;;;;;;5024370;28;20554;-59
2022/01/17 01:40:37;;;;;;;5.80;1.80;;;4.00;99.90;;;;;;5024424;28;20096;-59
2022/01/17 01:43:04;;;;;;;3.55;2.00;;;4.00;99.90;;;;;;5023884;28;20084;-59
2022/01/17 01:45:31;;;;;;;5.60;1.88;;;4.00;99.90;;;;;;5023871;28;20123;-59
2022/01/17 01:47:58;;;;;;;4.07;2.22;;;3.90;99.90;;;;;;5024290;28;20151;-59
2022/01/17 01:50:24;;;;;;;4.25;1.73;;;3.90;99.90;;;;;;5024046;28;20085;-60
2022/01/17 01:52:51;;;;;;;7.85;2.55;;;3.90;99.90;;;;;;5024188;28;20099;-60
2022/01/17 01:55:20;;;;;;;2.65;1.17;;;3.80;99.90;;;;;;5023596;28;20152;-61
2022/01/17 01:57:47;;;;;;;6.82;2.13;;;3.80;99.90;;;;;;5024505;28;20088;-59
2022/01/17 02:00:15;;;;;;;4.93;1.95;;;3.70;99.90;;;;;;5023237;28;20643;-60
2022/01/17 02:02:42;;;;;;;5.00;1.80;;;3.80;99.90;;;;;;5024037;28;20508;-60
2022/01/17 02:05:10;;;;;;;7.70;3.20;;;3.80;99.90;;;;;;5022878;28;20052;-60
2022/01/17 02:07:38;;;;;;;3.88;1.98;;;3.80;99.90;;;;;;5024473;28;20057;-60
2022/01/17 02:10:05;;;;;;;4.28;1.73;;;3.70;99.90;;;;;;5023970;28;20280;-60
2022/01/17 02:12:32;;;;;;;7.45;2.17;;;3.70;99.90;;;;;;5024398;28;20531;-60
2022/01/17 02:14:59;;;;;;;5.40;2.42;;;3.70;99.90;;;;;;5023014;28;20132;-60
2022/01/17 02:17:27;;;;;;;4.03;1.98;;;3.70;99.90;;;;;;5023896;28;20136;-59
2022/01/17 02:19:57;;;;;;;8.27;1.95;;;3.70;99.90;;;;;;5022316;28;20128;-60
2022/01/17 02:22:24;;;;;;;2.90;1.60;;;3.60;99.90;;;;;;5023413;28;20108;-60
2022/01/17 02:24:50;;;;;;;4.18;1.80;;;3.60;99.90;;;;;;5023792;28;20453;-60
2022/01/17 02:27:17;;;;;;;4.93;1.90;;;3.60;99.90;;;;;;5022930;28;20053;-59
2022/01/17 02:29:44;;;;;;;5.78;2.00;;;3.60;99.90;;;;;;5023408;28;20136;-60
2022/01/17 02:32:11;;;;;;;7.10;2.03;;;3.50;99.90;;;;;;5024386;28;20977;-60
2022/01/17 02:34:41;;;;;;;3.78;1.83;;;3.50;99.90;;;;;;5019796;28;20105;-60
2022/01/17 02:37:09;;;;;;;4.85;2.00;;;3.50;99.90;;;;;;5005318;28;20081;-60
2022/01/17 02:39:36;;;;;;;5.50;2.13;;;3.50;99.90;;;;;;5022791;28;20084;-59
2022/01/17 02:42:03;;;;;;;4.22;1.77;;;3.50;99.90;;;;;;5024473;28;20089;-60
2022/01/17 02:44:30;;;;;;;5.45;2.10;;;3.50;99.90;;;;;;5024522;28;20124;-60
2022/01/17 02:46:58;;;;;;;4.30;2.03;;;3.50;99.90;;;;;;5024046;28;20136;-59
2022/01/17 02:49:25;;;;;;;6.22;2.28;;;3.50;99.90;;;;;;5024889;28;20133;-60
2022/01/17 02:51:51;;;;;;;5.55;2.20;;;3.50;99.90;;;;;;5023522;28;20563;-60
2022/01/17 02:54:18;;;;;;;5.53;2.05;;;3.50;99.90;;;;;;5025494;28;20045;-60
2022/01/17 02:56:45;;;;;;;5.18;2.20;;;3.50;99.90;;;;;;5024042;28;20477;-60
2022/01/17 02:59:12;;;;;;;5.03;1.58;;;3.50;99.90;;;;;;5025028;28;20512;-60
2022/01/17 03:01:38;;;;;;;7.43;1.90;;;3.50;99.90;;;;;;5023846;28;20493;-60
2022/01/17 03:04:05;;;;;;;5.15;1.80;;;3.50;99.90;;;;;;5024228;28;20634;-60
2022/01/17 03:06:32;;;;;;;4.38;1.73;;;3.50;99.90;;;;;;5024092;28;20500;-60
2022/01/17 03:08:59;;;;;;;6.78;1.67;;;3.40;99.90;;;;;;5025015;28;20429;-60
2022/01/17 03:11:27;;;;;;;3.72;1.63;;;3.40;99.90;;;;;;5024119;28;20434;-60
2022/01/17 03:13:53;;;;;;;5.15;1.60;;;3.40;99.90;;;;;;5023929;28;20582;-60
2022/01/17 03:16:33;;;;;;;5.43;2.28;;;3.40;99.90;;;;;;5023276;28;20042;-59
2022/01/17 03:19:00;;;;;;;4.60;1.70;;;3.40;99.90;;;;;;5024515;28;20103;-60
2022/01/17 03:21:28;;;;;;;3.90;1.90;;;3.40;99.90;;;;;;5021513;28;20088;-59
2022/01/17 03:23:55;;;;;;;4.78;1.90;;;3.40;99.90;;;;;;5023856;28;20049;-60
2022/01/17 03:26:22;;;;;;;4.57;1.70;;;3.30;99.90;;;;;;5023758;28;20088;-59
2022/01/17 03:28:49;;;;;;;5.28;1.85;;;3.30;99.90;;;;;;5024383;28;20477;-60
2022/01/17 03:31:16;;;;;;;5.20;1.80;;;3.30;99.90;;;;;;5023787;28;20100;-60
2022/01/17 03:33:43;;;;;;;4.35;1.52;;;3.30;99.90;;;;;;5023232;28;20060;-60
2022/01/17 03:36:09;;;;;;;3.30;1.42;;;3.30;99.90;;;;;;5023635;28;20133;-60
2022/01/17 03:38:36;;;;;;;6.82;1.65;;;3.30;99.90;;;;;;5023523;28;20096;-60
2022/01/17 03:41:05;;;;;;;7.68;2.40;;;3.30;99.90;;;;;;5023705;28;20136;-60
2022/01/17 03:43:32;;;;;;;6.93;1.90;;;3.30;99.90;;;;;;5023975;28;20085;-60
2022/01/17 03:45:59;;;;;;;4.25;1.77;;;3.30;99.90;;;;;;5023967;28;20049;-60
2022/01/17 03:48:26;;;;;;;5.03;1.95;;;3.30;99.90;;;;;;5022798;28;20058;-60
2022/01/17 03:50:55;;;;;;;4.88;1.52;;;3.30;99.90;;;;;;5023653;28;20156;-60
2022/01/17 03:53:22;;;;;;;4.95;1.48;;;3.30;99.90;;;;;;5022948;28;20087;-60
2022/01/17 03:55:49;;;;;;;3.60;1.50;;;3.30;99.90;;;;;;5022960;28;20104;-60
2022/01/17 03:58:16;;;;;;;7.55;1.92;;;3.30;99.90;;;;;;5024144;28;20131;-60
2022/01/17 04:00:44;;;;;;;4.20;1.95;;;3.30;99.90;;;;;;5023264;28;20558;-60
2022/01/17 04:03:11;;;;;;;4.10;1.88;;;3.30;99.90;;;;;;5023077;28;20052;-59
2022/01/17 04:05:38;;;;;;;6.65;1.83;;;3.30;99.90;;;;;;5023468;28;20041;-60
2022/01/17 04:08:05;;;;;;;6.82;1.80;;;3.30;99.90;;;;;;5023035;28;20452;-60
2022/01/17 04:10:32;;;;;;;4.28;1.48;;;3.40;99.90;;;;;;5023847;28;20542;-60
2022/01/17 04:13:03;;;;;;;4.03;1.35;;;3.40;99.90;;;;;;5023537;28;20132;-60
2022/01/17 04:15:32;;;;;;;4.65;1.90;;;3.40;99.90;;;;;;5022800;28;20927;-60
2022/01/17 04:17:59;;;;;;;5.50;1.73;;;3.40;99.90;;;;;;5023695;28;20091;-60
2022/01/17 04:20:27;;;;;;;5.18;2.05;;;3.40;99.90;;;;;;5023404;28;20124;-60
2022/01/17 04:23:02;;;;;;;6.00;1.90;;;3.40;99.90;;;;;;5022993;28;20583;-60
2022/01/17 04:25:30;;;;;;;4.68;1.52;;;3.40;99.90;;;;;;5023153;28;20497;-60
2022/01/17 04:27:58;;;;;;;6.65;2.17;;;3.40;99.90;;;;;;5015973;28;20126;-60
2022/01/17 04:30:25;;;;;;;5.35;1.70;;;3.30;99.90;;;;;;5004651;28;20049;-60
2022/01/17 04:32:52;;;;;;;7.25;1.85;;;3.30;99.90;;;;;;5022209;28;20472;-60
2022/01/17 04:35:20;;;;;;;5.22;1.77;;;3.30;99.90;;;;;;5023038;28;20128;-60
2022/01/17 04:37:58;;;;;;;5.97;2.00;;;3.30;99.90;;;;;;5022895;28;20069;-60
2022/01/17 04:40:25;;;;;;;7.40;2.50;;;3.30;99.90;;;;;;5022834;28;20778;-60
2022/01/17 04:42:55;;;;;;;3.78;1.67;;;3.30;99.90;;;;;;5023527;28;20085;-60
2022/01/17 04:45:22;;;;;;;6.05;2.05;;;3.30;99.90;;;;;;5022757;28;20041;-60
2022/01/17 04:47:50;;;;;;;4.78;1.60;;;3.20;99.90;;;;;;5023124;28;20057;-60
2022/01/17 04:50:22;;;;;;;7.85;2.63;;;3.20;99.90;;;;;;5022568;28;20136;-60
2022/01/17 04:52:51;;;;;;;6.35;2.22;;;3.20;99.90;;;;;;5022772;28;20574;-60
2022/01/17 04:55:18;;;;;;;3.92;1.63;;;3.10;99.90;;;;;;5023530;28;20125;-60
2022/01/17 04:57:45;;;;;;;6.68;1.92;;;3.10;99.90;;;;;;5023390;28;20349;-60
2022/01/17 05:00:14;;;;;;;4.13;1.50;;;3.10;99.90;;;;;;5022966;28;20492;-60
2022/01/17 05:02:42;;;;;;;5.25;1.52;;;3.10;99.90;;;;;;5020950;28;20077;-60
2022/01/17 05:05:09;;;;;;;8.32;2.10;;;3.10;99.90;;;;;;5022235;28;20084;-60
2022/01/17 05:07:37;;;;;;;6.47;1.98;;;3.00;99.90;;;;;;5025295;28;20145;-60
2022/01/17 05:10:07;;;;;;;4.38;1.80;;;3.00;99.90;;;;;;5025943;28;20041;-60
2022/01/17 05:12:35;;;;;;;6.10;2.00;;;3.00;99.90;;;;;;5026966;28;20095;-60
2022/01/17 05:15:03;;;;;;;4.53;1.90;;;3.00;99.90;;;;;;5025887;28;20085;-60
2022/01/17 05:19:58;;;;;;;4.97;1.80;;;2.90;99.90;;;;;;5024361;28;20144;-60
2022/01/17 05:22:26;;;;;;;4.30;1.55;;;2.90;99.90;;;;;;5026533;28;20369;-60
2022/01/17 05:24:53;;;;;;;6.50;1.70;;;2.90;99.90;;;;;;5025922;28;20128;-60
2022/01/17 05:27:20;;;;;;;5.47;1.73;;;2.90;99.90;;;;;;5026397;28;20128;-60
2022/01/17 05:29:47;;;;;;;3.15;2.00;;;2.90;99.90;;;;;;5026174;28;20050;-61
2022/01/17 05:32:15;;;;;;;2.97;1.38;;;2.80;99.90;;;;;;5025999;28;20065;-60
2022/01/17 05:34:42;;;;;;;4.72;1.80;;;2.80;99.90;;;;;;5026014;28;20046;-60
2022/01/17 05:37:10;;;;;;;3.65;1.33;;;2.80;99.90;;;;;;5026093;28;20062;-60
2022/01/17 05:39:37;;;;;;;3.63;1.40;;;2.80;99.90;;;;;;5021238;28;20400;-60
2022/01/17 05:42:04;;;;;;;4.38;2.05;;;2.70;99.90;;;;;;5025717;28;20077;-60
2022/01/17 05:44:31;;;;;;;3.72;1.25;;;2.70;99.90;;;;;;5025238;28;20137;-60
2022/01/17 05:46:58;;;;;;;3.05;1.38;;;2.70;99.90;;;;;;5025306;28;20132;-60
2022/01/17 05:49:25;;;;;;;3.35;1.35;;;2.70;99.90;;;;;;5026367;28;20814;-60
2022/01/17 05:51:51;;;;;;;3.30;1.25;;;2.60;99.90;;;;;;5024695;28;20073;-60
2022/01/17 05:54:18;;;;;;;3.58;1.20;;;2.60;99.90;;;;;;5026702;28;20429;-60
2022/01/17 05:56:50;;;;;;;3.20;1.17;;;2.60;99.90;;;;;;5023482;28;20100;-60
2022/01/17 05:59:16;;;;;;;4.38;1.80;;;2.60;99.90;;;;;;5025926;28;20155;-60
2022/01/17 06:01:44;;;;;;;4.55;2.15;;;2.60;99.90;;;;;;5023445;28;20123;-60
2022/01/17 06:04:11;;;;;;;4.10;1.60;;;2.60;99.90;;;;;;5022610;28;20049;-59
2022/01/17 06:06:38;;;;;;;3.63;1.55;;;2.50;99.90;;;;;;5014874;28;20069;-60
2022/01/17 06:09:04;;;;;;;5.22;1.70;;;2.50;99.90;;;;;;5026278;28;20478;-60
2022/01/17 06:11:33;;;;;;;3.38;1.40;;;2.50;99.90;;;;;;5022758;28;20080;-60
2022/01/17 06:14:00;;;;;;;4.88;1.33;;;2.50;99.90;;;;;;5021505;28;20042;-60
2022/01/17 06:16:27;;;;;;;3.10;1.15;;;2.50;99.90;;;;;;5022262;28;20080;-60
2022/01/17 06:18:54;;;;;;;4.88;1.77;;;2.50;99.90;;;;;;5022997;28;20389;-59
2022/01/17 06:21:20;;;;;;;4.10;1.52;;;2.50;99.90;;;;;;5022424;28;20458;-60
2022/01/17 06:23:47;;;;;;;3.88;1.55;;;2.50;99.90;;;;;;5023787;28;20111;-59
2022/01/17 06:26:14;;;;;;;5.65;2.00;;;2.50;99.90;;;;;;5021304;28;20073;-59
2022/01/17 06:28:41;;;;;;;4.15;1.75;;;2.50;99.90;;;;;;5020365;28;20695;-60
2022/01/17 06:31:07;;;;;;;5.18;1.70;;;2.50;99.90;;;;;;5021423;28;20136;-60
2022/01/17 06:33:34;;;;;;;5.78;1.98;;;2.50;99.90;;;;;;5017536;28;20060;-60
2022/01/17 06:36:01;;;;;;;4.13;1.77;;;2.50;99.90;;;;;;5011071;28;20037;-60
2022/01/17 06:38:28;;;;;;;5.57;2.38;;;2.40;99.90;;;;;;5014244;28;20064;-60
2022/01/17 06:40:55;;;;;;;5.15;1.77;;;2.40;99.90;;;;;;5017858;28;20077;-60
2022/01/17 06:43:22;;;;;;;5.38;2.00;;;2.40;99.90;;;;;;5015703;28;20062;-60
2022/01/17 06:45:48;;;;;;;3.58;1.38;;;2.40;99.90;;;;;;5016902;28;20390;-61
2022/01/17 06:48:15;;;;;;;3.30;1.80;;;2.40;99.90;;;;;;5014731;28;20508;-60
2022/01/17 06:50:42;;;;;;;4.07;1.75;;;2.40;99.90;;;;;;5020849;28;20132;-60
2022/01/17 06:53:09;;;;;;;4.10;1.15;;;2.40;99.90;;;;;;5019977;28;20121;-60
2022/01/17 06:55:35;;;;;;;4.43;1.20;;;2.40;99.90;;;;;;5017231;28;20052;-60
2022/01/17 06:58:02;;;;;;;3.40;1.38;;;2.40;99.90;;;;;;5016588;28;20052;-60
2022/01/17 07:00:29;;;;;;;4.03;1.77;;;2.40;99.90;;;;;;5024076;28;20164;-59
2022/01/17 07:02:56;;;;;;;3.50;1.60;;;2.30;99.90;;;;;;5020520;28;20045;-60
2022/01/17 07:05:23;;;;;;;4.10;1.60;;;2.30;99.90;;;;;;5019992;28;20069;-60
2022/01/17 07:07:50;;;;;;;4.15;1.42;;;2.30;99.90;;;;;;5022067;28;20080;-59
2022/01/17 07:10:17;;;;;;;4.25;1.67;;;2.30;99.90;;;;;;5021588;28;20133;-60
2022/01/17 07:12:43;;;;;;;3.30;1.40;;;2.30;99.90;;;;;;5019897;28;20520;-60
2022/01/17 07:15:10;;;;;;;3.78;1.45;;;2.30;99.90;;;;;;5020522;28;20509;-60
2022/01/17 07:17:37;;;;;;;3.42;1.27;;;2.30;99.90;;;;;;5016669;28;20145;-61
2022/01/17 07:20:04;;;;;;;4.35;1.27;;;2.30;99.90;;;;;;5007324;28;20081;-60
2022/01/17 07:22:32;;;;;;;3.70;1.60;;;2.20;99.90;;;;;;5017324;28;20073;-60
2022/01/17 07:25:00;;;;;;;2.47;1.40;;;2.30;99.90;;;;;;5022331;28;20061;-61
2022/01/17 07:27:32;;;;;;;2.50;1.35;;;2.20;99.90;;;;;;5021755;28;20049;-61
2022/01/17 07:29:59;;;;;;;3.20;1.77;;;2.20;99.90;;;;;;5022091;28;20140;-61
2022/01/17 07:32:26;;;;;;;4.18;1.35;;;2.20;99.90;;;;;;5021422;28;20202;-61
2022/01/17 07:34:53;;;;;;;3.05;1.65;;;2.10;99.90;;;;;;5021827;28;20165;-61
2022/01/17 07:37:19;;;;;;;3.35;1.20;;;2.10;99.90;;;;;;5021365;28;20488;-61
2022/01/17 07:39:47;;;;;;;4.95;1.83;;;2.10;99.90;;;;;;5022123;28;20459;-61
2022/01/17 07:42:14;;;;;;;3.28;1.58;;;2.10;99.90;;;;;;5021533;28;20061;-61
2022/01/17 07:44:43;;;;;;;4.90;1.50;;;2.10;99.90;;;;;;5021850;28;20148;-61
2022/01/17 07:47:17;;;;;;;4.20;1.42;;;2.00;99.90;;;;;;5021813;28;20164;-61
2022/01/17 07:49:45;;;;;;;3.42;2.00;;;2.10;99.90;;;;;;5021219;28;20080;-62
2022/01/17 07:52:32;;;;;;;5.38;1.90;;;2.00;99.90;;;;;;5015295;28;20054;-61
2022/01/17 07:54:59;;;;;;;5.35;2.63;;;2.00;99.90;;;;;;5001522;28;20566;-61
2022/01/17 07:57:26;;;;;;;5.43;2.25;;;2.10;99.90;;;;;;5001781;28;20089;-61
2022/01/17 07:59:52;;;;;;;2.08;1.67;;;2.00;99.90;;;;;;5000291;28;20132;-61
2022/01/17 08:02:19;;;;;;;4.65;2.03;;;2.00;99.90;;;;;;5001239;28;20133;-61
2022/01/17 08:04:46;;;;;;;2.30;1.67;;;2.10;99.90;;;;;;5001414;28;20156;-60
2022/01/17 08:07:15;;;;;;;4.00;1.50;;;2.10;99.90;;;;;;5001549;28;20070;-61
2022/01/17 08:09:42;;;;;;;4.32;1.65;;;2.10;99.90;;;;;;5002059;28;20081;-61
2022/01/17 08:12:09;;;;;;;3.58;1.48;;;2.00;99.90;;;;;;5001301;28;20133;-61
2022/01/17 08:14:36;;;;;;;3.85;1.63;;;2.10;99.90;;;;;;5000778;28;20084;-62
2022/01/17 08:17:03;;;;;;;3.65;1.73;;;2.10;99.90;;;;;;5001034;28;20512;-60
2022/01/17 08:19:30;;;;;;;4.10;1.50;;;2.10;99.90;;;;;;5008116;28;20125;-62
2022/01/17 08:21:59;;;;;;;4.07;1.90;;;2.10;99.90;;;;;;5010765;28;20042;-61
2022/01/17 08:24:26;;;;;;;3.13;1.70;;;2.10;99.90;;;;;;5011937;28;20471;-61
2022/01/17 08:26:53;;;;;;;3.10;1.92;;;2.10;99.90;;;;;;5014612;28;20240;-62
2022/01/17 08:29:22;;;;;;;3.78;1.80;;;2.20;99.90;;;;;;5013135;28;20081;-61
2022/01/17 08:31:48;;;;;;;4.55;1.70;;;2.20;99.90;;;;;;5011519;28;20144;-61
2022/01/17 08:34:17;;;;;;;4.35;1.75;;;2.20;99.90;;;;;;5018241;28;20052;-61
2022/01/17 08:36:45;;;;;;;3.28;1.63;;;2.30;99.90;;;;;;5010484;28;20049;-61
2022/01/17 08:39:12;;;;;;;4.30;1.65;;;2.30;99.90;;;;;;5005884;28;20136;-60
2022/01/17 08:41:42;;;;;;;2.45;1.38;;;2.30;99.90;;;;;;5013682;28;20107;-60
2022/01/17 08:44:19;;;;;;;4.18;2.03;;;2.30;99.90;;;;;;5015818;28;20053;-60
2022/01/17 08:46:46;;;;;;;6.07;2.08;;;2.40;99.90;;;;;;5008942;28;20143;-60
2022/01/17 08:49:13;;;;;;;4.65;1.92;;;2.50;99.90;;;;;;5005162;28;20050;-59
2022/01/17 08:51:44;;;;;;;5.00;1.80;;;2.50;99.90;;;;;;5013794;28;20053;-60
2022/01/17 08:54:11;;;;;;;3.33;1.52;;;2.60;99.90;;;;;;5025480;28;20143;-60
2022/01/17 08:56:37;;;;;;;2.42;1.40;;;2.60;99.90;;;;;;5024896;28;20069;-59
2022/01/17 08:59:04;;;;;;;3.47;1.80;;;2.60;99.90;;;;;;5024967;28;20587;-59
2022/01/17 09:01:31;;;;;;;3.40;1.65;;;2.70;99.90;;;;;;5024431;28;20144;-59
2022/01/17 09:03:58;;;;;;;3.58;1.80;;;2.70;99.90;;;;;;5023817;28;20057;-59
2022/01/17 09:06:25;;;;;;;4.10;2.00;;;2.80;99.90;;;;;;5024125;28;20136;-59
2022/01/17 09:08:52;;;;;;;4.45;1.70;;;2.80;99.90;;;;;;5024883;28;20049;-59
2022/01/17 09:11:19;;;;;;;4.43;1.92;;;2.90;99.90;;;;;;5022749;28;20045;-59
2022/01/17 09:13:47;;;;;;;8.10;2.20;;;2.90;99.90;;;;;;5025073;28;20145;-60
2022/01/17 09:16:14;;;;;;;5.10;1.90;;;3.00;99.90;;;;;;5024370;28;20384;-58
2022/01/17 09:18:41;;;;;;;6.18;1.92;;;3.00;99.90;;;;;;5024123;28;20072;-59
2022/01/17 09:21:09;;;;;;;3.50;1.88;;;3.10;99.90;;;;;;5024213;28;20132;-58
2022/01/17 09:23:37;;;;;;;5.65;2.30;;;3.10;99.90;;;;;;5024502;28;20164;-59
2022/01/17 09:26:04;;;;;;;5.47;2.08;;;3.10;99.90;;;;;;5024512;28;20060;-59
2022/01/17 09:28:30;;;;;;;7.30;2.60;;;3.20;99.90;;;;;;5024946;28;20062;-59
2022/01/17 09:30:57;;;;;;;7.72;2.78;;;3.20;99.90;;;;;;5023423;28;20115;-59
2022/01/17 09:33:24;;;;;;;5.28;2.30;;;3.30;99.90;;;;;;5015787;28;20100;-60
2022/01/17 09:35:51;;;;;;;7.65;3.13;;;3.30;99.90;;;;;;5020921;28;20835;-59
2022/01/17 09:38:18;;;;;;;6.50;2.22;;;3.40;99.90;;;;;;5017049;28;20081;-58
2022/01/17 09:40:45;;;;;;;8.85;2.90;;;3.40;99.90;;;;;;5005944;28;20355;-59
2022/01/17 09:43:31;;;;;;;7.63;3.00;;;3.50;99.90;;;;;;5023793;28;20464;-59
2022/01/17 09:45:58;;;;;;;7.10;2.67;;;3.50;99.90;;;;;;5009308;28;20136;-59
2022/01/17 09:48:34;;;;;;;8.05;3.58;;;3.60;99.90;;;;;;5019481;28;20042;-59
2022/01/17 09:51:20;;;;;;;6.43;2.80;;;3.60;99.90;;;;;;5022183;28;20068;-59
2022/01/17 09:53:50;;;;;;;6.90;3.38;;;3.70;99.90;;;;;;5025305;28;20401;-60
2022/01/17 09:56:17;;;;;;;4.22;2.78;;;3.70;99.90;;;;;;5017504;28;20049;-59
2022/01/17 09:58:45;;;;;;;8.23;2.92;;;3.70;99.90;;;;;;5000194;28;20436;-59
2022/01/17 10:01:12;;;;;;;8.07;3.15;;;3.80;99.90;;;;;;5017507;28;20042;-59
2022/01/17 10:03:39;;;;;;;9.05;3.08;;;3.90;99.90;;;;;;5022318;28;20052;-59
2022/01/17 10:06:06;;;;;;;4.45;2.75;;;3.90;99.90;;;;;;5016336;28;20081;-59
2022/01/17 10:08:33;;;;;;;9.15;3.30;;;3.90;99.90;;;;;;5020801;28;20181;-59
2022/01/17 10:11:01;;;;;;;7.28;3.58;;;4.00;99.90;;;;;;5020541;28;20107;-60
2022/01/17 10:13:29;;;;;;;7.32;2.85;;;4.00;99.90;;;;;;5018011;28;20049;-60
2022/01/17 10:15:59;;;;;;;13.20;3.28;;;4.10;99.90;;;;;;5024354;28;20704;-60
2022/01/17 10:18:39;;;;;;;5.75;2.90;;;4.20;99.90;;;;;;5021140;28;20053;-59
2022/01/17 10:21:13;;;;;;;6.03;2.75;;;4.20;99.90;;;;;;5018844;28;20149;-59
2022/01/17 10:23:48;;;;;;;4.88;2.75;;;4.20;99.90;;;;;;5016979;28;20505;-59
2022/01/17 10:37:36;;;;;;;10.63;3.67;;;4.50;99.90;;;;;;1434279;26;20065;-84
2022/01/17 10:40:13;;;;;;;7.60;3.20;;;4.50;99.90;;;;;;5012531;28;20063;-82
2022/01/17 10:42:45;;;;;;;6.55;3.58;;;4.60;99.90;;;;;;5036864;28;20232;-81
2022/01/17 10:45:16;;;;;;;7.72;3.40;;;4.60;99.90;;;;;;5042517;28;20060;-81
2022/01/17 10:47:46;;;;;;;8.27;2.80;;;4.70;99.90;;;;;;5042548;28;20818;-82
2022/01/17 10:50:26;;;;;;;6.18;2.90;;;4.80;99.90;;;;;;5006259;28;20057;-81
2022/01/17 10:52:55;;;;;;;5.47;2.92;;;4.80;99.90;;;;;;5037364;28;20094;-80
2022/01/17 10:55:35;;;;;;;9.52;2.85;;;4.80;99.90;;;;;;5025276;28;20483;-82
2022/01/17 10:58:11;;;;;;;7.35;3.40;;;4.80;99.90;;;;;;5001979;28;20056;-81
2022/01/17 11:00:58;;;;;;;6.45;2.97;;;4.90;99.90;;;;;;5022470;28;20050;-78
2022/01/17 11:03:27;;;;;;;9.15;4.28;;;5.00;99.90;;;;;;5041281;28;20061;-80
2022/01/17 11:05:55;;;;;;;6.90;3.10;;;5.00;99.90;;;;;;5008656;28;20419;-82
2022/01/17 11:08:24;;;;;;;6.85;3.33;;;5.10;99.90;;;;;;5009165;28;20146;-80
2022/01/17 11:10:53;;;;;;;6.15;2.97;;;5.10;99.90;;;;;;5025641;28;20048;-81
2022/01/17 11:13:22;;;;;;;10.30;3.80;;;5.10;99.90;;;;;;5019727;28;20606;-80
2022/01/17 11:15:53;;;;;;;5.57;3.15;;;5.10;99.90;;;;;;5025619;28;20045;-81
2022/01/17 11:18:23;;;;;;;7.30;4.10;;;5.10;99.90;;;;;;4999055;28;20049;-79
2022/01/17 11:20:55;;;;;;;6.95;3.10;;;5.20;99.90;;;;;;5058884;28;20048;-81
2022/01/17 11:23:22;;;;;;;7.57;3.22;;;5.30;99.90;;;;;;5021439;28;20084;-81
2022/01/17 11:25:55;;;;;;;5.68;3.00;;;5.40;99.90;;;;;;5018941;28;20052;-81
2022/01/17 11:28:23;;;;;;;4.32;2.50;;;5.40;99.90;;;;;;5032730;28;20061;-81
2022/01/17 11:30:52;;;;;;;4.72;2.63;;;5.50;99.90;;;;;;5030621;28;20570;-80
2022/01/17 11:33:19;;;;;;;6.15;2.90;;;5.60;99.90;;;;;;5010296;28;20053;-79
2022/01/17 11:35:51;;;;;;;7.38;2.67;;;5.60;99.90;;;;;;4997241;28;20361;-80
2022/01/17 11:38:32;;;;;;;4.50;2.40;;;5.70;99.90;;;;;;5025357;28;20453;-82
2022/01/17 11:41:00;;;;;;;6.22;3.35;;;5.80;99.90;;;;;;4995838;28;20156;-79
2022/01/17 11:43:35;;;;;;;5.25;2.92;;;5.80;99.90;;;;;;4997803;28;20096;-81
2022/01/17 11:46:18;;;;;;;7.10;2.85;;;5.90;99.90;;;;;;5028068;28;20139;-82
2022/01/17 11:49:09;;;;;;;4.93;2.67;;;6.00;99.90;;;;;;5029416;28;20048;-81
2022/01/17 11:51:49;;;;;;;7.60;2.75;;;6.00;99.90;;;;;;5000545;28;20049;-79
2022/01/17 11:54:20;;;;;;;6.60;2.75;;;6.10;99.90;;;;;;5041308;28;20110;-82
2022/01/17 11:56:51;;;;;;;6.85;3.35;;;6.20;99.90;;;;;;5043429;28;20053;-80
2022/01/17 11:59:50;;;;;;;9.38;3.13;;;6.20;99.90;;;;;;5043554;28;20148;-81
2022/01/17 12:02:22;;;;;;;6.45;3.22;;;6.30;99.90;;;;;;5034839;28;20099;-83
2022/01/17 12:05:07;;;;;;;5.97;3.08;;;6.50;99.90;;;;;;5043243;28;20482;-81
2022/01/17 12:07:54;;;;;;;4.18;3.08;;;6.60;99.90;;;;;;5043851;28;20612;-81
2022/01/17 12:10:29;;;;;;;6.10;3.28;;;6.80;99.90;;;;;;5027646;28;20457;-82
2022/01/17 12:13:11;;;;;;;4.95;2.85;;;6.90;99.90;;;;;;5007689;28;20146;-81
2022/01/17 12:15:58;;;;;;;6.63;3.40;;;7.10;99.90;;;;;;5024735;28;20076;-80
2022/01/17 12:18:39;;;;;;;9.18;4.25;;;7.30;99.90;;;;;;5020383;28;20480;-83
2022/01/17 12:21:32;;;;;;;7.10;3.17;;;7.50;99.90;;;;;;5014422;28;20136;-81
2022/01/17 12:24:30;;;;;;;4.63;3.35;;;7.80;99.90;;;;;;5042907;28;20124;-82
2022/01/17 12:27:06;;;;;;;4.95;3.10;;;8.10;99.90;;;;;;5004394;28;20514;-83
2022/01/17 12:29:43;;;;;;;4.55;2.40;;;8.30;99.90;;;;;;5039543;28;20048;-81
2022/01/17 12:32:32;;;;;;;4.65;2.78;;;8.50;99.90;;;;;;5019580;28;20065;-82
2022/01/17 12:35:16;;;;;;;4.90;2.55;;;8.70;99.90;;;;;;5039772;28;20049;-82
2022/01/17 12:37:53;;;;;;;4.82;2.95;;;8.80;99.90;;;;;;5023888;28;20083;-85
2022/01/17 12:41:04;;;;;;;4.20;2.47;;;9.00;99.90;;;;;;5015311;28;20106;-81
2022/01/17 12:43:52;;;;;;;4.03;2.60;;;9.20;99.90;;;;;;5006421;28;20503;-84
2022/01/17 12:47:07;;;;;;;4.07;2.47;;;9.30;99.90;;;;;;4931557;28;20133;-82
2022/01/17 12:50:27;;;;;;;4.25;2.42;;;9.50;99.90;;;;;;4947947;28;20508;-84
2022/01/17 12:53:26;;;;;;;3.72;2.42;;;9.80;99.90;;;;;;4933111;28;20099;-84
2022/01/17 12:56:11;;;;;;;4.88;2.40;;;10.10;99.90;;;;;;4947836;28;20485;-85
2022/01/17 12:59:22;;;;;;;3.38;2.35;;;10.40;99.90;;;;;;4916875;28;20055;-83
2022/01/17 13:02:34;;;;;;;4.63;2.30;;;10.50;99.90;;;;;;4920786;28;20528;-83
2022/01/17 13:06:05;;;;;;;;;;;;;;;;;;;;;
2022/01/17 13:36:06;;;;;;;4.43;2.00;;;12.30;99.90;;;;;;4955491;28;20090;-60
2022/01/17 13:38:33;;;;;;;4.43;2.03;;;12.40;99.90;;;;;;4951517;28;20147;-59
2022/01/17 13:41:02;;;;;;;4.70;2.17;;;12.60;99.90;;;;;;4943987;28;20150;-59
2022/01/17 13:43:29;;;;;;;3.45;2.15;;;12.50;99.90;;;;;;4943308;28;20051;-60
2022/01/17 13:45:57;;;;;;;4.43;2.53;;;12.60;99.90;;;;;;4957756;28;20137;-60
2022/01/17 13:48:25;;;;;;;5.07;2.47;;;12.70;99.90;;;;;;4944302;28;20106;-59
2022/01/17 13:50:57;;;;;;;4.38;2.20;;;12.80;99.90;;;;;;4943658;28;20117;-59
2022/01/17 13:53:26;;;;;;;5.45;2.40;;;12.80;99.90;;;;;;4941984;28;20062;-59
2022/01/17 13:55:54;;;;;;;3.78;2.00;;;12.90;99.90;;;;;;4943730;29;20573;-60
2022/01/17 13:58:21;;;;;;;4.72;2.10;;;13.10;99.90;;;;;;4942934;28;20090;-59
2022/01/17 14:00:49;;;;;;;4.32;1.95;;;13.20;99.90;;;;;;4949519;28;20137;-60
2022/01/17 14:03:18;;;;;;;4.10;2.17;;;13.30;99.90;;;;;;4945711;28;20149;-60
2022/01/17 14:05:51;;;;;;;3.63;2.00;;;13.30;99.90;;;;;;4942105;28;20054;-59